Norwich, KS (67118)

6:14 AM CDT on September 15, 2014 (GMT -0500)
Goddard South | Change Station
CLOSE
Current Station
Personal Weather Station
Location: Goddard, KS
Elevation: 1444 ft
Nearby Weather Stations

Elev 1444 ft 37.64 °N, 97.59 °W | Updated 2 minutes ago

Partly Cloudy
Partly Cloudy
66.1 °F
Feels Like 66.1 °F
N
7.0
Wind Variable Wind from SW
Gusts 18.0 mph

Today
High -- | Low -- °F
--% Chance of Precip.
Yesterday
High -- | Low -- °F
Precip. -- in
7:13 AM 7:39 PM
Waning Gibbous, 56% visible
Pressure 30.00 in
Visibility 10.0 miles
Clouds Few 13000 ft
Few 20000 ft
Scattered Clouds 25000 ft
Dew Point 62 °F
Humidity 88%
Rainfall 0.00 in
Snow Depth Not available.
UV 0 out of 12
Pollen 9.10 out of 12
Air Quality Not available.
Flu Activity Not available.
METAR KICT 151053Z 19013KT 10SM FEW130 FEW200 SCT250 19/16 A3004 RMK AO2 SLP159 T01890161

More Conditions Fewer Conditions

Pressure 30.00 in
Visibility 10.0 miles
Clouds Few 13000 ft
Few 20000 ft
Scattered Clouds 25000 ft
Dew Point 62 °F
Humidity 88%
Rainfall 0.00 in
Snow Depth Not available.
UV 0 out of 12
Pollen 9.10 out of 12
Air Quality Not available.
Flu Activity Not available.
METAR KICT 151053Z 19013KT 10SM FEW130 FEW200 SCT250 19/16 A3004 RMK AO2 SLP159 T01890161

More Conditions Fewer Conditions

10-Day Weather Forecast

Almanac

Astronomy

Sep. 15, 2014 Rise Set
Actual Time 7:13 AM CDT 7:39 PM CDT
Civil Twilight 6:47 AM CDT 8:05 PM CDT
Nautical Twilight 6:16 AM CDT 8:35 PM CDT
Astronomical Twilight 5:44 AM CDT 9:07 PM CDT
Moon No Moon Rise 2:07 PM CDT
Length of Visible Light 13h 18m
Length of Day
12h 25m
Tomorrow will be 2m 23s shorter.
Waning Gibbous, 56% of the Moon is Illuminated
Today
Waning Gibbous
Sep 15
Last Quarter
Sep 24
New
Oct 1
First Quarter
Oct 8
Full

Today's Extremes

State Highs State Lows

Community

WunderPhotos

Upload Photos

1,753,429 photos uploaded!

Nearby

Snow Depth

Station Depth Elevation
No new snow has been reported.

Earthquake Activity

City Distance Mag. Time & Date
Cherokee, Oklahoma 51 miles 3.1 4:21 AM CDT
2014-09-15
Guthrie, Oklahoma 115 miles 3.0 7:11 PM CDT
2014-09-14
Enid, Oklahoma 58 miles 3.6 7:01 AM CDT
2014-09-14
Perry, Oklahoma 93 miles 3.3 11:10 PM CDT
2014-09-13
Minimum magnitude displayed is 2.5.

Coastal Water Temperatures

Place Temperature
No Stations Reporting

Nearby Weather Stations